sensor_id;sensor_type;location;lat;lon;timestamp;P1;durP1;ratioP1;P2;durP2;ratioP2
64351;SDS011;50680;52.626;-8.668;2023-03-19T00:00:33;12.90;;;2.63;;
64351;SDS011;50680;52.626;-8.668;2023-03-19T00:03:00;10.10;;;2.25;;
64351;SDS011;50680;52.626;-8.668;2023-03-19T00:05:27;20.52;;;2.95;;
64351;SDS011;50680;52.626;-8.668;2023-03-19T00:07:54;15.52;;;3.03;;
64351;SDS011;50680;52.626;-8.668;2023-03-19T00:10:21;15.27;;;3.03;;
64351;SDS011;50680;52.626;-8.668;2023-03-19T00:12:48;18.80;;;3.88;;
64351;SDS011;50680;52.626;-8.668;2023-03-19T00:15:14;8.25;;;2.47;;
64351;SDS011;50680;52.626;-8.668;2023-03-19T00:17:41;15.00;;;4.00;;
64351;SDS011;50680;52.626;-8.668;2023-03-19T00:20:09;14.10;;;2.45;;
64351;SDS011;50680;52.626;-8.668;2023-03-19T00:22:38;18.23;;;2.50;;
64351;SDS011;50680;52.626;-8.668;2023-03-19T00:25:06;13.63;;;2.20;;
64351;SDS011;50680;52.626;-8.668;2023-03-19T00:27:35;10.95;;;2.28;;
64351;SDS011;50680;52.626;-8.668;2023-03-19T00:30:04;13.25;;;2.35;;
64351;SDS011;50680;52.626;-8.668;2023-03-19T00:32:32;25.13;;;3.70;;
64351;SDS011;50680;52.626;-8.668;2023-03-19T00:35:01;11.38;;;2.17;;
64351;SDS011;50680;52.626;-8.668;2023-03-19T00:37:29;13.07;;;2.90;;
64351;SDS011;50680;52.626;-8.668;2023-03-19T00:39:55;8.00;;;2.00;;
64351;SDS011;50680;52.626;-8.668;2023-03-19T00:42:22;14.10;;;2.47;;
64351;SDS011;50680;52.626;-8.668;2023-03-19T00:44:49;13.02;;;2.38;;
64351;SDS011;50680;52.626;-8.668;2023-03-19T00:47:16;17.13;;;2.58;;
64351;SDS011;50680;52.626;-8.668;2023-03-19T00:49:43;14.55;;;2.95;;
64351;SDS011;50680;52.626;-8.668;2023-03-19T00:52:10;13.57;;;3.35;;
64351;SDS011;50680;52.626;-8.668;2023-03-19T00:54:37;11.75;;;2.60;;
64351;SDS011;50680;52.626;-8.668;2023-03-19T00:57:04;12.77;;;2.20;;
64351;SDS011;50680;52.626;-8.668;2023-03-19T00:59:31;8.95;;;2.08;;
64351;SDS011;50680;52.626;-8.668;2023-03-19T01:01:57;13.32;;;2.63;;
64351;SDS011;50680;52.626;-8.668;2023-03-19T01:04:24;12.43;;;2.80;;
64351;SDS011;50680;52.626;-8.668;2023-03-19T01:06:51;16.77;;;3.42;;
64351;SDS011;50680;52.626;-8.668;2023-03-19T01:09:18;13.18;;;2.33;;
64351;SDS011;50680;52.626;-8.668;2023-03-19T01:11:45;20.33;;;3.00;;
64351;SDS011;50680;52.626;-8.668;2023-03-19T01:14:13;13.70;;;2.38;;
64351;SDS011;50680;52.626;-8.668;2023-03-19T01:16:41;12.65;;;2.22;;
64351;SDS011;50680;52.626;-8.668;2023-03-19T01:19:08;11.43;;;2.55;;
64351;SDS011;50680;52.626;-8.668;2023-03-19T01:21:35;11.32;;;2.33;;
64351;SDS011;50680;52.626;-8.668;2023-03-19T01:24:01;14.82;;;3.17;;
64351;SDS011;50680;52.626;-8.668;2023-03-19T01:26:28;22.00;;;4.32;;
64351;SDS011;50680;52.626;-8.668;2023-03-19T01:28:56;21.58;;;3.08;;
64351;SDS011;50680;52.626;-8.668;2023-03-19T01:31:23;20.10;;;3.17;;
64351;SDS011;50680;52.626;-8.668;2023-03-19T01:33:50;16.45;;;3.63;;
64351;SDS011;50680;52.626;-8.668;2023-03-19T01:36:18;9.32;;;2.38;;
64351;SDS011;50680;52.626;-8.668;2023-03-19T01:38:44;8.90;;;2.15;;
64351;SDS011;50680;52.626;-8.668;2023-03-19T01:41:11;6.45;;;2.78;;
64351;SDS011;50680;52.626;-8.668;2023-03-19T01:43:38;17.48;;;3.03;;
64351;SDS011;50680;52.626;-8.668;2023-03-19T01:48:48;15.35;;;2.67;;
64351;SDS011;50680;52.626;-8.668;2023-03-19T01:51:28;25.08;;;3.55;;
64351;SDS011;50680;52.626;-8.668;2023-03-19T01:53:59;15.50;;;2.60;;
64351;SDS011;50680;52.626;-8.668;2023-03-19T01:56:31;11.35;;;2.60;;
64351;SDS011;50680;52.626;-8.668;2023-03-19T01:59:10;17.08;;;2.55;;
64351;SDS011;50680;52.626;-8.668;2023-03-19T02:01:46;21.20;;;2.65;;
64351;SDS011;50680;52.626;-8.668;2023-03-19T02:04:23;17.25;;;2.83;;
64351;SDS011;50680;52.626;-8.668;2023-03-19T02:06:55;14.80;;;2.80;;
64351;SDS011;50680;52.626;-8.668;2023-03-19T02:09:23;16.30;;;2.40;;
64351;SDS011;50680;52.626;-8.668;2023-03-19T02:11:52;10.77;;;2.08;;
64351;SDS011;50680;52.626;-8.668;2023-03-19T02:14:20;13.43;;;2.10;;
64351;SDS011;50680;52.626;-8.668;2023-03-19T02:16:48;11.55;;;2.20;;
64351;SDS011;50680;52.626;-8.668;2023-03-19T02:19:27;14.40;;;2.58;;
64351;SDS011;50680;52.626;-8.668;2023-03-19T02:22:00;36.47;;;4.93;;
64351;SDS011;50680;52.626;-8.668;2023-03-19T02:24:34;13.25;;;4.15;;
64351;SDS011;50680;52.626;-8.668;2023-03-19T02:27:07;6.35;;;1.98;;
64351;SDS011;50680;52.626;-8.668;2023-03-19T02:29:34;11.23;;;1.90;;
64351;SDS011;50680;52.626;-8.668;2023-03-19T02:32:01;12.77;;;1.85;;
64351;SDS011;50680;52.626;-8.668;2023-03-19T02:34:33;13.77;;;2.20;;
64351;SDS011;50680;52.626;-8.668;2023-03-19T02:37:08;12.63;;;2.05;;
64351;SDS011;50680;52.626;-8.668;2023-03-19T02:39:46;9.15;;;1.92;;
64351;SDS011;50680;52.626;-8.668;2023-03-19T02:42:17;14.05;;;2.25;;
64351;SDS011;50680;52.626;-8.668;2023-03-19T02:44:46;11.13;;;1.90;;
64351;SDS011;50680;52.626;-8.668;2023-03-19T02:47:13;13.25;;;1.70;;
64351;SDS011;50680;52.626;-8.668;2023-03-19T02:49:40;10.38;;;2.15;;
64351;SDS011;50680;52.626;-8.668;2023-03-19T02:52:07;18.77;;;2.45;;
64351;SDS011;50680;52.626;-8.668;2023-03-19T02:54:34;9.38;;;1.75;;
64351;SDS011;50680;52.626;-8.668;2023-03-19T02:57:01;14.95;;;2.30;;
64351;SDS011;50680;52.626;-8.668;2023-03-19T02:59:29;12.77;;;1.92;;
64351;SDS011;50680;52.626;-8.668;2023-03-19T03:01:56;8.18;;;2.13;;
64351;SDS011;50680;52.626;-8.668;2023-03-19T03:04:23;14.30;;;2.15;;
64351;SDS011;50680;52.626;-8.668;2023-03-19T03:06:50;20.70;;;3.28;;
64351;SDS011;50680;52.626;-8.668;2023-03-19T03:09:18;18.27;;;2.65;;
64351;SDS011;50680;52.626;-8.668;2023-03-19T03:11:45;17.25;;;3.40;;
64351;SDS011;50680;52.626;-8.668;2023-03-19T03:14:11;18.50;;;2.85;;
64351;SDS011;50680;52.626;-8.668;2023-03-19T03:16:38;18.30;;;3.17;;
64351;SDS011;50680;52.626;-8.668;2023-03-19T03:19:05;10.60;;;2.17;;
64351;SDS011;50680;52.626;-8.668;2023-03-19T03:21:32;13.27;;;2.38;;
64351;SDS011;50680;52.626;-8.668;2023-03-19T03:24:00;14.63;;;2.30;;
64351;SDS011;50680;52.626;-8.668;2023-03-19T03:26:27;12.77;;;3.20;;
64351;SDS011;50680;52.626;-8.668;2023-03-19T03:28:54;10.75;;;2.03;;
64351;SDS011;50680;52.626;-8.668;2023-03-19T03:31:21;9.30;;;2.05;;
64351;SDS011;50680;52.626;-8.668;2023-03-19T03:33:48;9.75;;;2.47;;
64351;SDS011;50680;52.626;-8.668;2023-03-19T03:36:15;14.35;;;2.20;;
64351;SDS011;50680;52.626;-8.668;2023-03-19T03:38:43;14.73;;;3.08;;
64351;SDS011;50680;52.626;-8.668;2023-03-19T03:41:11;12.10;;;2.00;;
64351;SDS011;50680;52.626;-8.668;2023-03-19T03:43:38;14.40;;;2.55;;
64351;SDS011;50680;52.626;-8.668;2023-03-19T03:46:05;12.85;;;2.83;;
64351;SDS011;50680;52.626;-8.668;2023-03-19T03:48:34;9.68;;;1.85;;
64351;SDS011;50680;52.626;-8.668;2023-03-19T03:51:01;14.43;;;2.97;;
64351;SDS011;50680;52.626;-8.668;2023-03-19T03:53:28;12.18;;;1.92;;
64351;SDS011;50680;52.626;-8.668;2023-03-19T03:55:55;10.75;;;2.60;;
64351;SDS011;50680;52.626;-8.668;2023-03-19T03:58:22;10.15;;;3.17;;
64351;SDS011;50680;52.626;-8.668;2023-03-19T04:00:49;7.57;;;1.58;;
64351;SDS011;50680;52.626;-8.668;2023-03-19T04:03:16;12.05;;;1.60;;
64351;SDS011;50680;52.626;-8.668;2023-03-19T04:05:43;10.32;;;2.25;;
64351;SDS011;50680;52.626;-8.668;2023-03-19T04:08:10;14.90;;;2.20;;
64351;SDS011;50680;52.626;-8.668;2023-03-19T04:10:38;10.13;;;1.95;;
64351;SDS011;50680;52.626;-8.668;2023-03-19T04:13:07;12.13;;;1.98;;
64351;SDS011;50680;52.626;-8.668;2023-03-19T04:15:35;21.35;;;2.65;;
64351;SDS011;50680;52.626;-8.668;2023-03-19T04:18:02;14.00;;;2.63;;
64351;SDS011;50680;52.626;-8.668;2023-03-19T04:20:29;12.43;;;1.85;;
64351;SDS011;50680;52.626;-8.668;2023-03-19T04:22:56;9.07;;;1.50;;
64351;SDS011;50680;52.626;-8.668;2023-03-19T04:25:23;25.02;;;2.10;;
64351;SDS011;50680;52.626;-8.668;2023-03-19T04:27:50;13.82;;;2.15;;
64351;SDS011;50680;52.626;-8.668;2023-03-19T04:30:17;13.27;;;2.85;;
64351;SDS011;50680;52.626;-8.668;2023-03-19T04:32:45;15.30;;;2.05;;
64351;SDS011;50680;52.626;-8.668;2023-03-19T04:35:13;20.67;;;2.80;;
64351;SDS011;50680;52.626;-8.668;2023-03-19T04:37:39;10.18;;;1.65;;
64351;SDS011;50680;52.626;-8.668;2023-03-19T04:40:08;13.50;;;1.92;;
64351;SDS011;50680;52.626;-8.668;2023-03-19T04:42:36;12.75;;;1.70;;
64351;SDS011;50680;52.626;-8.668;2023-03-19T04:45:03;10.38;;;1.10;;
64351;SDS011;50680;52.626;-8.668;2023-03-19T04:47:30;9.57;;;1.50;;
64351;SDS011;50680;52.626;-8.668;2023-03-19T04:49:57;12.75;;;1.58;;
64351;SDS011;50680;52.626;-8.668;2023-03-19T04:52:24;8.18;;;1.88;;
64351;SDS011;50680;52.626;-8.668;2023-03-19T04:54:51;6.38;;;1.30;;
64351;SDS011;50680;52.626;-8.668;2023-03-19T04:57:18;9.20;;;1.35;;
64351;SDS011;50680;52.626;-8.668;2023-03-19T04:59:44;11.48;;;2.00;;
64351;SDS011;50680;52.626;-8.668;2023-03-19T05:02:11;13.60;;;2.55;;
64351;SDS011;50680;52.626;-8.668;2023-03-19T05:04:38;12.63;;;1.90;;
64351;SDS011;50680;52.626;-8.668;2023-03-19T05:07:05;12.80;;;1.98;;
64351;SDS011;50680;52.626;-8.668;2023-03-19T05:09:32;9.93;;;2.05;;
64351;SDS011;50680;52.626;-8.668;2023-03-19T05:11:59;16.20;;;1.80;;
64351;SDS011;50680;52.626;-8.668;2023-03-19T05:14:26;11.45;;;1.38;;
64351;SDS011;50680;52.626;-8.668;2023-03-19T05:16:53;14.30;;;1.75;;
64351;SDS011;50680;52.626;-8.668;2023-03-19T05:19:19;19.73;;;2.40;;
64351;SDS011;50680;52.626;-8.668;2023-03-19T05:21:47;14.38;;;1.70;;
64351;SDS011;50680;52.626;-8.668;2023-03-19T05:24:14;10.93;;;1.50;;
64351;SDS011;50680;52.626;-8.668;2023-03-19T05:26:41;8.52;;;1.50;;
64351;SDS011;50680;52.626;-8.668;2023-03-19T05:29:08;8.02;;;1.95;;
64351;SDS011;50680;52.626;-8.668;2023-03-19T05:31:36;13.10;;;2.45;;
64351;SDS011;50680;52.626;-8.668;2023-03-19T05:34:03;10.52;;;3.03;;
64351;SDS011;50680;52.626;-8.668;2023-03-19T05:36:30;19.08;;;3.60;;
64351;SDS011;50680;52.626;-8.668;2023-03-19T05:38:57;21.88;;;2.25;;
64351;SDS011;50680;52.626;-8.668;2023-03-19T05:41:25;19.80;;;2.90;;
64351;SDS011;50680;52.626;-8.668;2023-03-19T05:43:52;18.27;;;2.40;;
64351;SDS011;50680;52.626;-8.668;2023-03-19T05:46:19;19.42;;;2.20;;
64351;SDS011;50680;52.626;-8.668;2023-03-19T05:48:46;12.32;;;2.08;;
64351;SDS011;50680;52.626;-8.668;2023-03-19T05:51:13;17.88;;;2.45;;
64351;SDS011;50680;52.626;-8.668;2023-03-19T05:53:39;10.50;;;2.97;;
64351;SDS011;50680;52.626;-8.668;2023-03-19T05:56:06;8.55;;;2.00;;
64351;SDS011;50680;52.626;-8.668;2023-03-19T05:58:33;12.65;;;2.00;;
64351;SDS011;50680;52.626;-8.668;2023-03-19T06:01:00;14.52;;;2.05;;
64351;SDS011;50680;52.626;-8.668;2023-03-19T06:03:27;17.52;;;2.60;;
64351;SDS011;50680;52.626;-8.668;2023-03-19T06:05:54;12.57;;;2.22;;
64351;SDS011;50680;52.626;-8.668;2023-03-19T06:08:21;14.57;;;2.33;;
64351;SDS011;50680;52.626;-8.668;2023-03-19T06:10:48;11.23;;;2.50;;
64351;SDS011;50680;52.626;-8.668;2023-03-19T06:13:16;10.55;;;2.33;;
64351;SDS011;50680;52.626;-8.668;2023-03-19T06:15:43;14.60;;;2.60;;
64351;SDS011;50680;52.626;-8.668;2023-03-19T06:18:10;17.60;;;2.58;;
64351;SDS011;50680;52.626;-8.668;2023-03-19T06:20:37;7.65;;;2.33;;
64351;SDS011;50680;52.626;-8.668;2023-03-19T06:23:03;6.47;;;1.95;;
64351;SDS011;50680;52.626;-8.668;2023-03-19T06:25:30;13.80;;;1.88;;
64351;SDS011;50680;52.626;-8.668;2023-03-19T06:27:57;12.63;;;2.00;;
64351;SDS011;50680;52.626;-8.668;2023-03-19T06:30:24;12.00;;;2.13;;
64351;SDS011;50680;52.626;-8.668;2023-03-19T06:32:52;16.05;;;2.25;;
64351;SDS011;50680;52.626;-8.668;2023-03-19T06:35:18;17.90;;;2.45;;
64351;SDS011;50680;52.626;-8.668;2023-03-19T06:37:46;14.05;;;2.30;;
64351;SDS011;50680;52.626;-8.668;2023-03-19T06:40:14;13.13;;;2.60;;
64351;SDS011;50680;52.626;-8.668;2023-03-19T06:42:44;7.18;;;1.80;;
64351;SDS011;50680;52.626;-8.668;2023-03-19T06:47:42;13.88;;;2.15;;
64351;SDS011;50680;52.626;-8.668;2023-03-19T06:50:09;9.65;;;1.70;;
64351;SDS011;50680;52.626;-8.668;2023-03-19T06:52:37;9.18;;;1.63;;
64351;SDS011;50680;52.626;-8.668;2023-03-19T06:55:05;11.95;;;1.90;;
64351;SDS011;50680;52.626;-8.668;2023-03-19T06:57:33;11.25;;;2.40;;
64351;SDS011;50680;52.626;-8.668;2023-03-19T07:00:01;17.73;;;2.38;;
64351;SDS011;50680;52.626;-8.668;2023-03-19T07:02:28;12.13;;;3.25;;
64351;SDS011;50680;52.626;-8.668;2023-03-19T07:04:54;12.88;;;2.92;;
64351;SDS011;50680;52.626;-8.668;2023-03-19T07:07:21;14.82;;;2.17;;
64351;SDS011;50680;52.626;-8.668;2023-03-19T07:09:48;7.45;;;1.80;;
64351;SDS011;50680;52.626;-8.668;2023-03-19T07:12:15;11.43;;;2.17;;
64351;SDS011;50680;52.626;-8.668;2023-03-19T07:14:42;13.02;;;1.83;;
64351;SDS011;50680;52.626;-8.668;2023-03-19T07:17:09;11.57;;;2.03;;
64351;SDS011;50680;52.626;-8.668;2023-03-19T07:19:36;8.38;;;1.25;;
64351;SDS011;50680;52.626;-8.668;2023-03-19T07:22:03;10.98;;;1.60;;
64351;SDS011;50680;52.626;-8.668;2023-03-19T07:24:29;11.75;;;2.08;;
64351;SDS011;50680;52.626;-8.668;2023-03-19T07:26:56;10.55;;;1.80;;
64351;SDS011;50680;52.626;-8.668;2023-03-19T07:29:23;13.00;;;1.75;;
64351;SDS011;50680;52.626;-8.668;2023-03-19T07:31:50;10.90;;;1.50;;
64351;SDS011;50680;52.626;-8.668;2023-03-19T07:34:17;9.05;;;1.60;;
64351;SDS011;50680;52.626;-8.668;2023-03-19T07:36:44;4.38;;;1.23;;
64351;SDS011;50680;52.626;-8.668;2023-03-19T07:39:11;7.85;;;1.52;;
64351;SDS011;50680;52.626;-8.668;2023-03-19T07:41:38;10.50;;;1.83;;
64351;SDS011;50680;52.626;-8.668;2023-03-19T07:44:04;8.10;;;1.65;;
64351;SDS011;50680;52.626;-8.668;2023-03-19T07:46:31;6.93;;;1.67;;
64351;SDS011;50680;52.626;-8.668;2023-03-19T07:48:58;10.10;;;1.58;;
64351;SDS011;50680;52.626;-8.668;2023-03-19T07:51:25;7.72;;;1.52;;
64351;SDS011;50680;52.626;-8.668;2023-03-19T07:53:52;6.88;;;1.20;;
64351;SDS011;50680;52.626;-8.668;2023-03-19T07:56:19;10.05;;;1.58;;
64351;SDS011;50680;52.626;-8.668;2023-03-19T07:58:46;10.27;;;1.83;;
64351;SDS011;50680;52.626;-8.668;2023-03-19T08:01:12;11.77;;;1.33;;
64351;SDS011;50680;52.626;-8.668;2023-03-19T08:03:39;5.20;;;1.02;;
64351;SDS011;50680;52.626;-8.668;2023-03-19T08:06:06;9.13;;;1.20;;
64351;SDS011;50680;52.626;-8.668;2023-03-19T08:08:33;4.75;;;0.70;;
64351;SDS011;50680;52.626;-8.668;2023-03-19T08:11:00;9.05;;;1.05;;
64351;SDS011;50680;52.626;-8.668;2023-03-19T08:13:27;10.38;;;1.90;;
64351;SDS011;50680;52.626;-8.668;2023-03-19T08:15:55;6.68;;;1.30;;
64351;SDS011;50680;52.626;-8.668;2023-03-19T08:18:22;10.95;;;2.30;;
64351;SDS011;50680;52.626;-8.668;2023-03-19T08:20:49;10.85;;;1.10;;
64351;SDS011;50680;52.626;-8.668;2023-03-19T08:23:16;9.02;;;1.20;;
64351;SDS011;50680;52.626;-8.668;2023-03-19T08:25:43;7.93;;;1.38;;
64351;SDS011;50680;52.626;-8.668;2023-03-19T08:28:10;10.55;;;1.08;;
64351;SDS011;50680;52.626;-8.668;2023-03-19T08:30:37;7.40;;;1.35;;
64351;SDS011;50680;52.626;-8.668;2023-03-19T08:33:04;10.43;;;1.17;;
64351;SDS011;50680;52.626;-8.668;2023-03-19T08:35:32;10.88;;;1.75;;
64351;SDS011;50680;52.626;-8.668;2023-03-19T08:37:58;11.10;;;1.00;;
64351;SDS011;50680;52.626;-8.668;2023-03-19T08:40:25;7.00;;;1.20;;
64351;SDS011;50680;52.626;-8.668;2023-03-19T08:42:52;12.82;;;1.73;;
64351;SDS011;50680;52.626;-8.668;2023-03-19T08:45:19;10.65;;;1.42;;
64351;SDS011;50680;52.626;-8.668;2023-03-19T08:47:47;12.02;;;1.63;;
64351;SDS011;50680;52.626;-8.668;2023-03-19T08:50:14;9.15;;;1.52;;
64351;SDS011;50680;52.626;-8.668;2023-03-19T08:52:41;10.77;;;1.30;;
64351;SDS011;50680;52.626;-8.668;2023-03-19T08:55:09;8.13;;;1.35;;
64351;SDS011;50680;52.626;-8.668;2023-03-19T08:57:35;2.88;;;0.90;;
64351;SDS011;50680;52.626;-8.668;2023-03-19T09:00:03;14.02;;;1.50;;
64351;SDS011;50680;52.626;-8.668;2023-03-19T09:02:31;11.23;;;1.40;;
64351;SDS011;50680;52.626;-8.668;2023-03-19T09:04:57;9.38;;;1.42;;
64351;SDS011;50680;52.626;-8.668;2023-03-19T09:07:24;7.65;;;0.98;;
64351;SDS011;50680;52.626;-8.668;2023-03-19T09:09:51;7.57;;;1.23;;
64351;SDS011;50680;52.626;-8.668;2023-03-19T09:12:18;10.60;;;1.33;;
64351;SDS011;50680;52.626;-8.668;2023-03-19T09:14:44;6.68;;;1.50;;
64351;SDS011;50680;52.626;-8.668;2023-03-19T09:17:11;10.07;;;1.30;;
64351;SDS011;50680;52.626;-8.668;2023-03-19T09:19:39;11.05;;;1.02;;
64351;SDS011;50680;52.626;-8.668;2023-03-19T09:22:06;14.25;;;1.58;;
64351;SDS011;50680;52.626;-8.668;2023-03-19T09:24:33;7.05;;;0.90;;
64351;SDS011;50680;52.626;-8.668;2023-03-19T09:27:00;16.15;;;1.67;;
64351;SDS011;50680;52.626;-8.668;2023-03-19T09:29:28;9.18;;;1.23;;
64351;SDS011;50680;52.626;-8.668;2023-03-19T09:31:54;5.97;;;1.02;;
64351;SDS011;50680;52.626;-8.668;2023-03-19T09:34:21;13.43;;;1.13;;
64351;SDS011;50680;52.626;-8.668;2023-03-19T09:36:48;7.72;;;1.35;;
64351;SDS011;50680;52.626;-8.668;2023-03-19T09:39:15;9.20;;;0.95;;
64351;SDS011;50680;52.626;-8.668;2023-03-19T09:42:05;6.28;;;0.90;;
64351;SDS011;50680;52.626;-8.668;2023-03-19T09:44:36;11.90;;;0.90;;
64351;SDS011;50680;52.626;-8.668;2023-03-19T09:49:45;4.18;;;0.75;;
64351;SDS011;50680;52.626;-8.668;2023-03-19T09:57:52;8.10;;;1.17;;
64351;SDS011;50680;52.626;-8.668;2023-03-19T10:00:28;9.48;;;1.20;;
64351;SDS011;50680;52.626;-8.668;2023-03-19T10:03:17;7.38;;;1.30;;
64351;SDS011;50680;52.626;-8.668;2023-03-19T10:14:14;6.38;;;1.13;;
64351;SDS011;50680;52.626;-8.668;2023-03-19T10:16:43;15.32;;;1.10;;
64351;SDS011;50680;52.626;-8.668;2023-03-19T10:19:15;9.80;;;1.30;;
64351;SDS011;50680;52.626;-8.668;2023-03-19T10:21:49;11.35;;;1.52;;
64351;SDS011;50680;52.626;-8.668;2023-03-19T10:24:32;6.20;;;1.05;;
64351;SDS011;50680;52.626;-8.668;2023-03-19T10:27:21;8.43;;;1.00;;
64351;SDS011;50680;52.626;-8.668;2023-03-19T10:29:51;9.18;;;1.55;;
64351;SDS011;50680;52.626;-8.668;2023-03-19T10:32:19;6.88;;;1.02;;
64351;SDS011;50680;52.626;-8.668;2023-03-19T10:34:53;7.47;;;1.00;;
64351;SDS011;50680;52.626;-8.668;2023-03-19T10:37:25;8.50;;;1.23;;
64351;SDS011;50680;52.626;-8.668;2023-03-19T10:39:54;12.88;;;1.23;;
64351;SDS011;50680;52.626;-8.668;2023-03-19T10:47:48;8.68;;;1.23;;
64351;SDS011;50680;52.626;-8.668;2023-03-19T10:51:00;6.18;;;1.85;;
64351;SDS011;50680;52.626;-8.668;2023-03-19T10:53:36;13.15;;;1.55;;
64351;SDS011;50680;52.626;-8.668;2023-03-19T10:56:06;11.10;;;1.88;;
64351;SDS011;50680;52.626;-8.668;2023-03-19T10:58:54;15.45;;;1.52;;
64351;SDS011;50680;52.626;-8.668;2023-03-19T11:01:35;5.40;;;1.25;;
64351;SDS011;50680;52.626;-8.668;2023-03-19T11:04:21;11.82;;;1.60;;
64351;SDS011;50680;52.626;-8.668;2023-03-19T11:06:49;11.85;;;1.67;;
64351;SDS011;50680;52.626;-8.668;2023-03-19T11:11:46;18.00;;;1.90;;
64351;SDS011;50680;52.626;-8.668;2023-03-19T11:14:33;13.30;;;2.15;;
64351;SDS011;50680;52.626;-8.668;2023-03-19T11:19:48;12.23;;;2.80;;
64351;SDS011;50680;52.626;-8.668;2023-03-19T11:22:24;13.77;;;1.88;;
64351;SDS011;50680;52.626;-8.668;2023-03-19T11:25:02;10.17;;;1.47;;
64351;SDS011;50680;52.626;-8.668;2023-03-19T11:27:40;15.80;;;1.80;;
64351;SDS011;50680;52.626;-8.668;2023-03-19T11:30:16;21.13;;;2.33;;
64351;SDS011;50680;52.626;-8.668;2023-03-19T11:33:05;9.68;;;1.58;;
64351;SDS011;50680;52.626;-8.668;2023-03-19T11:36:00;13.75;;;1.40;;
64351;SDS011;50680;52.626;-8.668;2023-03-19T11:38:57;14.65;;;1.65;;
64351;SDS011;50680;52.626;-8.668;2023-03-19T11:47:13;11.13;;;1.55;;
64351;SDS011;50680;52.626;-8.668;2023-03-19T12:04:03;15.48;;;1.75;;
64351;SDS011;50680;52.626;-8.668;2023-03-19T12:07:28;8.75;;;1.15;;
64351;SDS011;50680;52.626;-8.668;2023-03-19T12:12:39;12.98;;;1.80;;
64351;SDS011;50680;52.626;-8.668;2023-03-19T12:18:13;11.52;;;1.83;;
64351;SDS011;50680;52.626;-8.668;2023-03-19T12:26:31;11.68;;;1.67;;
64351;SDS011;50680;52.626;-8.668;2023-03-19T12:31:43;17.65;;;2.17;;
64351;SDS011;50680;52.626;-8.668;2023-03-19T12:34:54;10.18;;;1.25;;
64351;SDS011;50680;52.626;-8.668;2023-03-19T12:37:29;12.85;;;2.47;;
64351;SDS011;50680;52.626;-8.668;2023-03-19T12:42:58;12.88;;;1.48;;
64351;SDS011;50680;52.626;-8.668;2023-03-19T12:45:37;15.07;;;1.90;;
64351;SDS011;50680;52.626;-8.668;2023-03-19T12:48:20;14.77;;;1.60;;
64351;SDS011;50680;52.626;-8.668;2023-03-19T12:50:53;11.82;;;1.70;;
64351;SDS011;50680;52.626;-8.668;2023-03-19T12:53:30;16.75;;;1.48;;
64351;SDS011;50680;52.626;-8.668;2023-03-19T12:59:26;8.75;;;1.67;;
64351;SDS011;50680;52.626;-8.668;2023-03-19T13:11:14;7.50;;;1.20;;
64351;SDS011;50680;52.626;-8.668;2023-03-19T13:14:05;7.40;;;1.13;;
64351;SDS011;50680;52.626;-8.668;2023-03-19T13:16:42;8.38;;;1.23;;
64351;SDS011;50680;52.626;-8.668;2023-03-19T13:22:20;7.93;;;1.45;;
64351;SDS011;50680;52.626;-8.668;2023-03-19T13:24:49;7.78;;;1.35;;
64351;SDS011;50680;52.626;-8.668;2023-03-19T13:27:22;7.57;;;1.33;;
64351;SDS011;50680;52.626;-8.668;2023-03-19T13:30:00;8.98;;;1.27;;
64351;SDS011;50680;52.626;-8.668;2023-03-19T13:35:12;9.63;;;1.38;;
64351;SDS011;50680;52.626;-8.668;2023-03-19T13:37:54;11.45;;;1.50;;
64351;SDS011;50680;52.626;-8.668;2023-03-19T13:53:41;6.05;;;1.10;;
64351;SDS011;50680;52.626;-8.668;2023-03-19T13:56:20;5.78;;;1.23;;
64351;SDS011;50680;52.626;-8.668;2023-03-19T14:01:41;7.75;;;1.85;;
64351;SDS011;50680;52.626;-8.668;2023-03-19T14:06:43;9.75;;;1.33;;
64351;SDS011;50680;52.626;-8.668;2023-03-19T14:14:41;7.22;;;2.00;;
64351;SDS011;50680;52.626;-8.668;2023-03-19T14:17:14;7.57;;;1.42;;
64351;SDS011;50680;52.626;-8.668;2023-03-19T14:19:48;7.35;;;1.40;;
64351;SDS011;50680;52.626;-8.668;2023-03-19T14:24:55;13.55;;;1.67;;
64351;SDS011;50680;52.626;-8.668;2023-03-19T14:27:49;6.63;;;1.58;;
64351;SDS011;50680;52.626;-8.668;2023-03-19T14:30:28;7.47;;;1.70;;
64351;SDS011;50680;52.626;-8.668;2023-03-19T14:33:00;11.35;;;1.92;;
64351;SDS011;50680;52.626;-8.668;2023-03-19T14:35:34;9.07;;;1.50;;
64351;SDS011;50680;52.626;-8.668;2023-03-19T14:41:18;10.10;;;1.98;;
64351;SDS011;50680;52.626;-8.668;2023-03-19T14:46:55;8.30;;;1.30;;
64351;SDS011;50680;52.626;-8.668;2023-03-19T14:52:22;10.45;;;2.13;;
64351;SDS011;50680;52.626;-8.668;2023-03-19T14:54:53;10.68;;;1.83;;
64351;SDS011;50680;52.626;-8.668;2023-03-19T14:57:28;7.72;;;1.40;;
64351;SDS011;50680;52.626;-8.668;2023-03-19T14:59:58;8.27;;;1.73;;
64351;SDS011;50680;52.626;-8.668;2023-03-19T15:05:30;7.30;;;1.20;;
64351;SDS011;50680;52.626;-8.668;2023-03-19T15:07:54;6.60;;;1.13;;
64351;SDS011;50680;52.626;-8.668;2023-03-19T15:10:26;7.80;;;1.00;;
64351;SDS011;50680;52.626;-8.668;2023-03-19T15:13:05;3.25;;;1.02;;
64351;SDS011;50680;52.626;-8.668;2023-03-19T15:18:34;6.78;;;1.17;;
64351;SDS011;50680;52.626;-8.668;2023-03-19T15:21:02;7.30;;;1.38;;
64351;SDS011;50680;52.626;-8.668;2023-03-19T15:23:30;6.70;;;1.65;;
64351;SDS011;50680;52.626;-8.668;2023-03-19T15:25:59;5.65;;;1.10;;
64351;SDS011;50680;52.626;-8.668;2023-03-19T15:28:32;3.33;;;0.80;;
64351;SDS011;50680;52.626;-8.668;2023-03-19T15:31:11;5.68;;;0.85;;
64351;SDS011;50680;52.626;-8.668;2023-03-19T15:33:56;3.08;;;0.88;;
64351;SDS011;50680;52.626;-8.668;2023-03-19T15:36:25;2.97;;;0.50;;
64351;SDS011;50680;52.626;-8.668;2023-03-19T15:39:01;4.28;;;0.65;;
64351;SDS011;50680;52.626;-8.668;2023-03-19T15:41:37;3.70;;;0.65;;
64351;SDS011;50680;52.626;-8.668;2023-03-19T15:44:13;3.22;;;0.80;;
64351;SDS011;50680;52.626;-8.668;2023-03-19T15:46:44;3.75;;;0.60;;
64351;SDS011;50680;52.626;-8.668;2023-03-19T15:49:22;4.35;;;0.70;;
64351;SDS011;50680;52.626;-8.668;2023-03-19T15:51:55;1.38;;;0.40;;
64351;SDS011;50680;52.626;-8.668;2023-03-19T15:54:27;0.90;;;0.40;;
64351;SDS011;50680;52.626;-8.668;2023-03-19T15:56:54;2.28;;;0.30;;
64351;SDS011;50680;52.626;-8.668;2023-03-19T15:59:22;1.67;;;0.40;;
64351;SDS011;50680;52.626;-8.668;2023-03-19T16:01:55;2.72;;;0.30;;
64351;SDS011;50680;52.626;-8.668;2023-03-19T16:04:26;1.17;;;0.30;;
64351;SDS011;50680;52.626;-8.668;2023-03-19T16:06:55;1.13;;;0.30;;
64351;SDS011;50680;52.626;-8.668;2023-03-19T16:09:24;2.08;;;0.38;;
64351;SDS011;50680;52.626;-8.668;2023-03-19T16:12:00;0.82;;;0.20;;
64351;SDS011;50680;52.626;-8.668;2023-03-19T16:14:40;0.73;;;0.30;;
64351;SDS011;50680;52.626;-8.668;2023-03-19T16:17:12;0.63;;;0.32;;
64351;SDS011;50680;52.626;-8.668;2023-03-19T16:22:14;0.43;;;0.30;;
64351;SDS011;50680;52.626;-8.668;2023-03-19T16:24:43;0.30;;;0.22;;
64351;SDS011;50680;52.626;-8.668;2023-03-19T16:27:16;0.47;;;0.20;;
64351;SDS011;50680;52.626;-8.668;2023-03-19T16:29:45;0.47;;;0.30;;
64351;SDS011;50680;52.626;-8.668;2023-03-19T16:34:50;1.20;;;0.30;;
64351;SDS011;50680;52.626;-8.668;2023-03-19T16:42:45;0.50;;;0.30;;
64351;SDS011;50680;52.626;-8.668;2023-03-19T16:47:42;0.20;;;0.20;;
64351;SDS011;50680;52.626;-8.668;2023-03-19T16:50:10;1.77;;;0.30;;
64351;SDS011;50680;52.626;-8.668;2023-03-19T16:52:37;0.13;;;0.10;;
64351;SDS011;50680;52.626;-8.668;2023-03-19T16:55:10;1.75;;;0.20;;
64351;SDS011;50680;52.626;-8.668;2023-03-19T16:57:41;0.80;;;0.40;;
64351;SDS011;50680;52.626;-8.668;2023-03-19T17:00:16;0.45;;;0.30;;
64351;SDS011;50680;52.626;-8.668;2023-03-19T17:02:44;0.65;;;0.30;;
64351;SDS011;50680;52.626;-8.668;2023-03-19T17:05:13;0.80;;;0.30;;